Portada
METAR-TAF:

METAR-TAF

Aeropuertos :

Aeropuerto Internacional del Caribe Santiago Mariño

Isla de Margarita, Venezuela

latitud: 10-55N, longitud: 063-59W, altitud: 23 m

Observación

El informe se hizo hace 1 hora y 45 minutos, a las 18:00 UTC
Temperatura 34°C
Humedad 53%
Presión 1010 hPa
Visibilidad 10 km o más
Escasas nubes a una altura de 1000 ft
Nubes dispersas a una altura de 8000 ft

METAR: SVMG 191800Z /////KT 9999 FEW010 SCT080 34/23 Q1010 NOSIG

Hora: 15:45 (19:45 UTC)

Pronóstico

El informe se hizo hace 3 horas y 45 minutos, a las 16:00 UTC
Pronóstico válido del 19 a las 18 UTC al 20 a las 18 UTC
Viento 10 kt del este
Visibilidad 10 km o más
Nubes dispersas a una altura de 1000 ft
Temporalmente
del 19 a las 18 UTC al 19 a las 22 UTC
Viento 10 kt del este
Visibilidad: 8000 m
Cielo nuboso a una altura de 1000 ft
llovizna

TAF: SVMG 191600Z 1918/2018 09010KT 9999 SCT010 TX33/18Z TN24/08Z TEMPO 1918/1922 09010KT 8000 DZ BKN010

Observaciones y pronósticos meteorológicos de más de 4000 aeropuertos (mensajes METAR y TAF).

Los puntos amarillos y rojos representan las estaciones disponibles.

Ponga el ratón en el punto deseado para ver el nombre de la estación.

Haga clic para ver las observaciones y los pronósticos meteorológicos.

Para cambiar el mapa : haga clic en los botones verdes con una cruz de color negro para hacer un zoom, en el botón verde con un guión para alejar o en las flechas verdes para mapas adyacentes.


METAR-TAF: